Atlantik Pride — 9HA2480 — position and weather

sailwx.info

Track history (hours):
 
Tides and Currents Weather Stations Pressure Air Temp Water Temp Dewpoint Dewpoint Depression Visibility Wind Speed Wind Dir Waves Ship Positions

Atlantik Pride

Last reported at 2018-Aug-19 14:58 UTC. Time now 2018-Aug-19 15:19 UTC.
Position N 37°44' W 025°40'.

Length 140 m; draft 9.3 m.

Type: Ship. MMSI: 248713000.

Date/timePositionNaut miles runAvg speedWind from/ knotsBaromVisibWave heightAir tempDewpointWater temp
2018-Aug-19 14:58N 37°44' W 025°40'0 0.0
2018-Aug-19 14:28N 37°44' W 025°40'0 0.0
2018-Aug-19 13:58N 37°44' W 025°40'0 0.0
2018-Aug-19 13:28N 37°44' W 025°40'0 0.0
2018-Aug-19 12:58N 37°44' W 025°40'0 0.0
2018-Aug-19 12:28N 37°44' W 025°40'0 0.2
2018-Aug-19 11:58N 37°44' W 025°40'0 0.0
2018-Aug-19 11:28N 37°44' W 025°40'0 0.0
2018-Aug-19 10:58N 37°44' W 025°40'0 0.0
2018-Aug-19 10:28N 37°44' W 025°40'0 0.0
2018-Aug-19 09:58N 37°44' W 025°40'0 0.0
2018-Aug-19 09:28N 37°44' W 025°40'0 0.0
2018-Aug-19 08:58N 37°44' W 025°40'0 0.0
2018-Aug-19 08:28N 37°44' W 025°40'0 0.0
2018-Aug-19 07:58N 37°44' W 025°40'0 0.0
2018-Aug-19 07:28N 37°44' W 025°40'0 0.0
2018-Aug-19 06:58N 37°44' W 025°40'0 0.0
2018-Aug-19 06:28N 37°44' W 025°40'0 0.0
2018-Aug-19 05:58N 37°44' W 025°40'0 0.0
2018-Aug-19 05:28N 37°44' W 025°40'0 0.0
2018-Aug-19 04:58N 37°44' W 025°40'0 0.0
2018-Aug-19 04:25N 37°44' W 025°40'0 0.0
2018-Aug-19 03:58N 37°44' W 025°40'0 0.0
2018-Aug-19 03:28N 37°44' W 025°40'0 0.0
2018-Aug-19 02:58N 37°44' W 025°40'0 0.0
2018-Aug-19 02:28N 37°44' W 025°40'0 0.0
2018-Aug-19 01:58N 37°44' W 025°40'0 0.0
2018-Aug-19 01:28N 37°44' W 025°40'0 0.0
2018-Aug-19 00:58N 37°44' W 025°40'0 0.0
2018-Aug-19 00:28N 37°44' W 025°40'0 0.0
2018-Aug-18 23:58N 37°44' W 025°40'0 0.0
2018-Aug-18 23:28N 37°44' W 025°40'0 0.0
2018-Aug-18 22:58N 37°44' W 025°40'0 0.0
2018-Aug-18 22:28N 37°44' W 025°40'0 0.0
2018-Aug-18 21:58N 37°44' W 025°40'0 0.0
2018-Aug-18 21:28N 37°44' W 025°40'0 0.0
2018-Aug-18 20:58N 37°44' W 025°40'0 0.0
2018-Aug-18 20:28N 37°44' W 025°40'0 0.0
2018-Aug-18 19:58N 37°44' W 025°40'0 0.0
2018-Aug-18 19:28N 37°44' W 025°40'0 0.0
2018-Aug-18 18:58N 37°44' W 025°40'0 0.2
2018-Aug-18 18:28N 37°44' W 025°40'1 2.5
2018-Aug-18 18:01N 37°44' W 025°39'0 0.3
2018-Aug-18 17:30N 37°44' W 025°38'1 1.0
2018-Aug-18 17:00N 37°44' W 025°38'0 0.1
2018-Aug-18 16:30N 37°44' W 025°38'0 0.0
2018-Aug-18 16:00N 37°44' W 025°38'0 0.1
2018-Aug-18 15:30N 37°44' W 025°38'0 0.2
2018-Aug-18 15:00N 37°44' W 025°38'0 0.1
2018-Aug-18 14:30N 37°44' W 025°38'0 0.3
2018-Aug-18 14:00N 37°44' W 025°38'0 0.0
2018-Aug-18 13:30N 37°44' W 025°38'0 0.1
2018-Aug-18 13:01N 37°44' W 025°38'4 8.3
2018-Aug-18 12:31N 37°42' W 025°34'5 9.2
2018-Aug-18 12:00N 37°40' W 025°28'510.6
2018-Aug-18 11:31N 37°40' W 025°22'510.9
2018-Aug-18 11:00N 37°41' W 025°15'510.8
2018-Aug-18 10:30N 37°41' W 025°08'5 9.9
2018-Aug-18 10:01N 37°42' W 025°02'510.2
2018-Aug-18 09:31N 37°43' W 024°55'510.4
2018-Aug-18 09:00N 37°43' W 024°49'510.2
2018-Aug-18 08:30N 37°44' W 024°42'5 9.8
2018-Aug-18 08:01N 37°44' W 024°36'510.1
2018-Aug-18 07:30N 37°45' W 024°30'510.1
2018-Aug-18 07:00N 37°45' W 024°23'510.0
2018-Aug-18 06:30N 37°46' W 024°17'510.0
2018-Aug-18 06:00N 37°46' W 024°11'5 9.7
2018-Aug-18 05:30N 37°47' W 024°05'5 9.7
2018-Aug-18 05:00N 37°47' W 023°59'510.0
2018-Aug-18 04:30N 37°48' W 023°52'5 9.8
2018-Aug-18 04:00N 37°48' W 023°46'5 9.6
2018-Aug-18 03:30N 37°48' W 023°40'6 9.6
2018-Aug-18 02:54N 37°49' W 023°33'5 9.9
2018-Aug-18 02:20N 37°50' W 023°26'610.0
2018-Aug-18 01:43N 37°50' W 023°18'54611.1
2018-Aug-16 00:39N 38°02' W 011°46'1 9.8
2018-Aug-16 00:31N 38°02' W 011°45'2010.2
2018-Aug-15 22:35N 38°02' W 011°20'110.7
2018-Aug-15 22:30N 38°02' W 011°19'2110.7
2018-Aug-15 20:30N 38°01' W 010°52'510.7
2018-Aug-15 20:01N 38°01' W 010°45'710.5
2018-Aug-15 19:23N 38°01' W 010°37'810.6
2018-Aug-15 18:35N 38°01' W 010°26'110.8
2018-Aug-15 18:30N 38°01' W 010°25'510.5
2018-Aug-15 18:01N 37°60' W 010°18'510.7
2018-Aug-15 17:31N 37°59' W 010°12'510.9
2018-Aug-15 17:01N 37°58' W 010°05'610.7
2018-Aug-15 16:29N 37°56' W 009°58'510.2
2018-Aug-15 15:57N 37°55' W 009°51'610.9
2018-Aug-15 15:27N 37°58' W 009°45'410.3
2018-Aug-15 15:01N 37°58' W 009°39'611.0
2018-Aug-15 14:30N 37°58' W 009°32'511.1
2018-Aug-15 14:01N 37°57' W 009°26'510.9
2018-Aug-15 13:31N 37°57' W 009°19'510.9
2018-Aug-15 13:01N 37°57' W 009°12'510.8
2018-Aug-15 12:31N 37°56' W 009°05'510.8
2018-Aug-15 12:01N 37°56' W 008°58'4 8.3
2018-Aug-15 11:31N 37°57' W 008°53'0 0.4
2018-Aug-15 11:00N 37°57' W 008°53'0 0.0
2018-Aug-15 10:30N 37°57' W 008°53'0 0.0
2018-Aug-15 10:00N 37°57' W 008°53'0 0.0
2018-Aug-15 09:30N 37°57' W 008°53'0 0.0
2018-Aug-15 09:00N 37°57' W 008°53'0 0.0
2018-Aug-15 08:24N 37°57' W 008°53'0 0.0
2018-Aug-15 08:00N 37°57' W 008°53'0 0.0
2018-Aug-15 07:30N 37°57' W 008°53'0 0.0
2018-Aug-15 07:00N 37°57' W 008°53'0 0.0
2018-Aug-15 06:30N 37°57' W 008°53'0 0.0
2018-Aug-15 06:00N 37°57' W 008°53'0 0.0
2018-Aug-15 05:30N 37°57' W 008°53'0 0.0
2018-Aug-15 05:00N 37°57' W 008°53'0 0.0
2018-Aug-15 04:30N 37°57' W 008°53'0 0.0
2018-Aug-15 04:00N 37°57' W 008°53'0 0.0
2018-Aug-15 03:30N 37°57' W 008°53'0 0.0
2018-Aug-15 03:00N 37°57' W 008°53'0 0.0
2018-Aug-15 02:30N 37°57' W 008°53'0 0.0
2018-Aug-15 02:00N 37°57' W 008°53'0 0.0
2018-Aug-15 01:30N 37°57' W 008°53'0 0.0
2018-Aug-15 01:00N 37°57' W 008°53'0 0.0
2018-Aug-15 00:30N 37°57' W 008°53'0 0.0
2018-Aug-15 00:00N 37°57' W 008°53'0 0.0
2018-Aug-14 23:30N 37°57' W 008°53'0 0.0
2018-Aug-14 23:00N 37°57' W 008°53'0 0.0
2018-Aug-14 22:30N 37°57' W 008°53'0 0.0
2018-Aug-14 22:00N 37°57' W 008°53'0 0.0
2018-Aug-14 21:30N 37°57' W 008°53'0 0.0
2018-Aug-14 20:57N 37°57' W 008°53'0 0.0
2018-Aug-14 20:30N 37°57' W 008°53'0 0.0
2018-Aug-14 20:00N 37°57' W 008°53'0 0.0
2018-Aug-14 19:30N 37°57' W 008°53'0 0.0
2018-Aug-14 19:00N 37°57' W 008°53'0 0.0
2018-Aug-14 18:30N 37°57' W 008°53'0 0.0
2018-Aug-14 18:00N 37°57' W 008°53'0 0.0
2018-Aug-14 17:30N 37°57' W 008°53'0 0.0
2018-Aug-14 17:00N 37°57' W 008°53'0 0.0
2018-Aug-14 16:30N 37°57' W 008°53'0 0.0
2018-Aug-14 16:00N 37°57' W 008°53'0 0.0
2018-Aug-14 15:30N 37°57' W 008°53'0 0.0
2018-Aug-14 15:00N 37°57' W 008°53'0 0.0
2018-Aug-14 14:30N 37°57' W 008°53'0 0.0
2018-Aug-14 14:00N 37°57' W 008°53'0 0.0
2018-Aug-14 13:27N 37°57' W 008°53'0 0.0
2018-Aug-14 13:00N 37°57' W 008°53'0 0.0
2018-Aug-14 12:30N 37°57' W 008°53'0 0.0
2018-Aug-14 12:00N 37°57' W 008°53'0 0.0
2018-Aug-14 11:30N 37°57' W 008°53'0 0.0
2018-Aug-14 11:00N 37°57' W 008°53'0 0.0
2018-Aug-14 10:30N 37°57' W 008°53'0 0.0
2018-Aug-14 10:00N 37°57' W 008°53'0 0.0
2018-Aug-14 09:30N 37°57' W 008°53'0 0.0
2018-Aug-14 09:00N 37°57' W 008°53'0 0.0
2018-Aug-14 08:30N 37°57' W 008°53'0 0.0
2018-Aug-14 08:00N 37°57' W 008°53'0 0.0
2018-Aug-14 07:30N 37°57' W 008°53'0 0.0
2018-Aug-14 07:00N 37°57' W 008°53'0 0.0
2018-Aug-14 06:30N 37°57' W 008°53'0 0.0
2018-Aug-14 05:57N 37°57' W 008°53'0 0.0
2018-Aug-14 05:27N 37°57' W 008°53'0 0.0
2018-Aug-14 05:00N 37°57' W 008°53'0 0.0
2018-Aug-14 04:30N 37°57' W 008°53'0 0.0
2018-Aug-14 04:00N 37°57' W 008°53'0 0.0
2018-Aug-14 03:30N 37°57' W 008°53'2 3.1
2018-Aug-14 03:01N 37°55' W 008°53'5 9.2
2018-Aug-14 02:31N 37°53' W 008°57'612.5
2018-Aug-14 02:01N 37°48' W 009°03'612.9
2018-Aug-14 01:30N 37°44' W 009°09'612.7
2018-Aug-14 01:00N 37°40' W 009°16'612.5
2018-Aug-14 00:30N 37°36' W 009°22'612.6
2018-Aug-14 00:01N 37°32' W 009°28'612.3
2018-Aug-13 23:30N 37°28' W 009°34'612.4
2018-Aug-13 23:00N 37°24' W 009°40'612.1
2018-Aug-13 22:31N 37°20' W 009°46'611.8
2018-Aug-13 22:01N 37°17' W 009°52'611.7
2018-Aug-13 21:30N 37°13' W 009°57'611.8
2018-Aug-13 21:00N 37°09' W 010°03'611.7
2018-Aug-13 20:31N 37°06' W 010°09'611.5
2018-Aug-13 20:00N 37°02' W 010°15'7 8.2
2018-Aug-13 19:12N 36°58' W 010°21'812.0
2018-Aug-13 18:33N 36°53' W 010°28'211.9
2018-Aug-13 18:25N 36°52' W 010°30'512.0
2018-Aug-13 18:00N 36°49' W 010°35'612.1
2018-Aug-13 17:30N 36°45' W 010°40'912.0
2018-Aug-13 16:45N 36°39' W 010°49'1412.4
2018-Aug-13 15:37N 36°30' W 011°02'3811.7
2018-Aug-13 12:21N 36°05' W 011°39'512.7
2018-Aug-13 11:57N 36°02' W 011°44'612.6
2018-Aug-13 11:30N 35°59' W 011°49'1112.5
2018-Aug-13 10:39N 35°52' W 011°60'212.6
2018-Aug-13 10:30N 35°51' W 012°02'10311.2
2018-Aug-13 01:18N 34°45' W 013°39'411.4
2018-Aug-13 00:59N 34°42' W 013°42'611.2
2018-Aug-13 00:29N 34°39' W 013°47'1111.4
2018-Aug-12 23:31N 34°32' W 013°58'111.3
2018-Aug-12 23:26N 34°31' W 013°59'511.4
2018-Aug-12 23:00N 34°28' W 014°03'611.6
2018-Aug-12 22:30N 34°25' W 014°09'711.3
2018-Aug-12 21:53N 34°20' W 014°15'510.9
2018-Aug-12 21:25N 34°17' W 014°20'710.8
2018-Aug-12 20:47N 34°12' W 014°26'910.9
2018-Aug-12 20:00N 34°06' W 014°34'10011.0
2018-Aug-12 10:58N 33°03' W 016°06'511.9
2018-Aug-12 10:31N 32°60' W 016°11'611.8
2018-Aug-12 10:00N 32°56' W 016°17'  
Track history (hours):
 
Tides and Currents Weather Stations Pressure Air Temp Water Temp Dewpoint Dewpoint Depression Visibility Wind Speed Wind Dir Waves Ship Positions

Atlantik Pride

Last reported at 2018-Aug-19 14:58 UTC. Time now 2018-Aug-19 15:19 UTC.
Position N 37°44' W 025°40'.

Length 140 m; draft 9.3 m.

Type: Ship. MMSI: 248713000.

Date/timePositionNaut miles runAvg speedWind from/ knotsBaromVisibWave heightAir tempDewpointWater temp
2018-Aug-19 14:58N 37°44' W 025°40'0 0.0
2018-Aug-19 14:28N 37°44' W 025°40'0 0.0
2018-Aug-19 13:58N 37°44' W 025°40'0 0.0
2018-Aug-19 13:28N 37°44' W 025°40'0 0.0
2018-Aug-19 12:58N 37°44' W 025°40'0 0.0
2018-Aug-19 12:28N 37°44' W 025°40'0 0.2
2018-Aug-19 11:58N 37°44' W 025°40'0 0.0
2018-Aug-19 11:28N 37°44' W 025°40'0 0.0
2018-Aug-19 10:58N 37°44' W 025°40'0 0.0
2018-Aug-19 10:28N 37°44' W 025°40'0 0.0
2018-Aug-19 09:58N 37°44' W 025°40'0 0.0
2018-Aug-19 09:28N 37°44' W 025°40'0 0.0
2018-Aug-19 08:58N 37°44' W 025°40'0 0.0
2018-Aug-19 08:28N 37°44' W 025°40'0 0.0
2018-Aug-19 07:58N 37°44' W 025°40'0 0.0
2018-Aug-19 07:28N 37°44' W 025°40'0 0.0
2018-Aug-19 06:58N 37°44' W 025°40'0 0.0
2018-Aug-19 06:28N 37°44' W 025°40'0 0.0
2018-Aug-19 05:58N 37°44' W 025°40'0 0.0
2018-Aug-19 05:28N 37°44' W 025°40'0 0.0
2018-Aug-19 04:58N 37°44' W 025°40'0 0.0
2018-Aug-19 04:25N 37°44' W 025°40'0 0.0
2018-Aug-19 03:58N 37°44' W 025°40'0 0.0
2018-Aug-19 03:28N 37°44' W 025°40'0 0.0
2018-Aug-19 02:58N 37°44' W 025°40'0 0.0
2018-Aug-19 02:28N 37°44' W 025°40'0 0.0
2018-Aug-19 01:58N 37°44' W 025°40'0 0.0
2018-Aug-19 01:28N 37°44' W 025°40'0 0.0
2018-Aug-19 00:58N 37°44' W 025°40'0 0.0
2018-Aug-19 00:28N 37°44' W 025°40'0 0.0
2018-Aug-18 23:58N 37°44' W 025°40'0 0.0
2018-Aug-18 23:28N 37°44' W 025°40'0 0.0
2018-Aug-18 22:58N 37°44' W 025°40'0 0.0
2018-Aug-18 22:28N 37°44' W 025°40'0 0.0
2018-Aug-18 21:58N 37°44' W 025°40'0 0.0
2018-Aug-18 21:28N 37°44' W 025°40'0 0.0
2018-Aug-18 20:58N 37°44' W 025°40'0 0.0
2018-Aug-18 20:28N 37°44' W 025°40'0 0.0
2018-Aug-18 19:58N 37°44' W 025°40'0 0.0
2018-Aug-18 19:28N 37°44' W 025°40'0 0.0
2018-Aug-18 18:58N 37°44' W 025°40'0 0.2
2018-Aug-18 18:28N 37°44' W 025°40'1 2.5
2018-Aug-18 18:01N 37°44' W 025°39'0 0.3
2018-Aug-18 17:30N 37°44' W 025°38'1 1.0
2018-Aug-18 17:00N 37°44' W 025°38'0 0.1
2018-Aug-18 16:30N 37°44' W 025°38'0 0.0
2018-Aug-18 16:00N 37°44' W 025°38'0 0.1
2018-Aug-18 15:30N 37°44' W 025°38'0 0.2
2018-Aug-18 15:00N 37°44' W 025°38'0 0.1
2018-Aug-18 14:30N 37°44' W 025°38'0 0.3
2018-Aug-18 14:00N 37°44' W 025°38'0 0.0
2018-Aug-18 13:30N 37°44' W 025°38'0 0.1
2018-Aug-18 13:01N 37°44' W 025°38'4 8.3
2018-Aug-18 12:31N 37°42' W 025°34'5 9.2
2018-Aug-18 12:00N 37°40' W 025°28'510.6
2018-Aug-18 11:31N 37°40' W 025°22'510.9
2018-Aug-18 11:00N 37°41' W 025°15'510.8
2018-Aug-18 10:30N 37°41' W 025°08'5 9.9
2018-Aug-18 10:01N 37°42' W 025°02'510.2
2018-Aug-18 09:31N 37°43' W 024°55'510.4
2018-Aug-18 09:00N 37°43' W 024°49'510.2
2018-Aug-18 08:30N 37°44' W 024°42'5 9.8
2018-Aug-18 08:01N 37°44' W 024°36'510.1
2018-Aug-18 07:30N 37°45' W 024°30'510.1
2018-Aug-18 07:00N 37°45' W 024°23'510.0
2018-Aug-18 06:30N 37°46' W 024°17'510.0
2018-Aug-18 06:00N 37°46' W 024°11'5 9.7
2018-Aug-18 05:30N 37°47' W 024°05'5 9.7
2018-Aug-18 05:00N 37°47' W 023°59'510.0
2018-Aug-18 04:30N 37°48' W 023°52'5 9.8
2018-Aug-18 04:00N 37°48' W 023°46'5 9.6
2018-Aug-18 03:30N 37°48' W 023°40'6 9.6
2018-Aug-18 02:54N 37°49' W 023°33'5 9.9
2018-Aug-18 02:20N 37°50' W 023°26'610.0
2018-Aug-18 01:43N 37°50' W 023°18'54611.1
2018-Aug-16 00:39N 38°02' W 011°46'1 9.8
2018-Aug-16 00:31N 38°02' W 011°45'2010.2
2018-Aug-15 22:35N 38°02' W 011°20'110.7
2018-Aug-15 22:30N 38°02' W 011°19'2110.7
2018-Aug-15 20:30N 38°01' W 010°52'510.7
2018-Aug-15 20:01N 38°01' W 010°45'710.5
2018-Aug-15 19:23N 38°01' W 010°37'810.6
2018-Aug-15 18:35N 38°01' W 010°26'110.8
2018-Aug-15 18:30N 38°01' W 010°25'510.5
2018-Aug-15 18:01N 37°60' W 010°18'510.7
2018-Aug-15 17:31N 37°59' W 010°12'510.9
2018-Aug-15 17:01N 37°58' W 010°05'610.7
2018-Aug-15 16:29N 37°56' W 009°58'510.2
2018-Aug-15 15:57N 37°55' W 009°51'610.9
2018-Aug-15 15:27N 37°58' W 009°45'410.3
2018-Aug-15 15:01N 37°58' W 009°39'611.0
2018-Aug-15 14:30N 37°58' W 009°32'511.1
2018-Aug-15 14:01N 37°57' W 009°26'510.9
2018-Aug-15 13:31N 37°57' W 009°19'510.9
2018-Aug-15 13:01N 37°57' W 009°12'510.8
2018-Aug-15 12:31N 37°56' W 009°05'510.8
2018-Aug-15 12:01N 37°56' W 008°58'4 8.3
2018-Aug-15 11:31N 37°57' W 008°53'0 0.4
2018-Aug-15 11:00N 37°57' W 008°53'0 0.0
2018-Aug-15 10:30N 37°57' W 008°53'0 0.0
2018-Aug-15 10:00N 37°57' W 008°53'0 0.0
2018-Aug-15 09:30N 37°57' W 008°53'0 0.0
2018-Aug-15 09:00N 37°57' W 008°53'0 0.0
2018-Aug-15 08:24N 37°57' W 008°53'0 0.0
2018-Aug-15 08:00N 37°57' W 008°53'0 0.0
2018-Aug-15 07:30N 37°57' W 008°53'0 0.0
2018-Aug-15 07:00N 37°57' W 008°53'0 0.0
2018-Aug-15 06:30N 37°57' W 008°53'0 0.0
2018-Aug-15 06:00N 37°57' W 008°53'0 0.0
2018-Aug-15 05:30N 37°57' W 008°53'0 0.0
2018-Aug-15 05:00N 37°57' W 008°53'0 0.0
2018-Aug-15 04:30N 37°57' W 008°53'0 0.0
2018-Aug-15 04:00N 37°57' W 008°53'0 0.0
2018-Aug-15 03:30N 37°57' W 008°53'0 0.0
2018-Aug-15 03:00N 37°57' W 008°53'0 0.0
2018-Aug-15 02:30N 37°57' W 008°53'0 0.0
2018-Aug-15 02:00N 37°57' W 008°53'0 0.0
2018-Aug-15 01:30N 37°57' W 008°53'0 0.0
2018-Aug-15 01:00N 37°57' W 008°53'0 0.0
2018-Aug-15 00:30N 37°57' W 008°53'0 0.0
2018-Aug-15 00:00N 37°57' W 008°53'0 0.0
2018-Aug-14 23:30N 37°57' W 008°53'0 0.0
2018-Aug-14 23:00N 37°57' W 008°53'0 0.0
2018-Aug-14 22:30N 37°57' W 008°53'0 0.0
2018-Aug-14 22:00N 37°57' W 008°53'0 0.0
2018-Aug-14 21:30N 37°57' W 008°53'0 0.0
2018-Aug-14 20:57N 37°57' W 008°53'0 0.0
2018-Aug-14 20:30N 37°57' W 008°53'0 0.0
2018-Aug-14 20:00N 37°57' W 008°53'0 0.0
2018-Aug-14 19:30N 37°57' W 008°53'0 0.0
2018-Aug-14 19:00N 37°57' W 008°53'0 0.0
2018-Aug-14 18:30N 37°57' W 008°53'0 0.0
2018-Aug-14 18:00N 37°57' W 008°53'0 0.0
2018-Aug-14 17:30N 37°57' W 008°53'0 0.0
2018-Aug-14 17:00N 37°57' W 008°53'0 0.0
2018-Aug-14 16:30N 37°57' W 008°53'0 0.0
2018-Aug-14 16:00N 37°57' W 008°53'0 0.0
2018-Aug-14 15:30N 37°57' W 008°53'0 0.0
2018-Aug-14 15:00N 37°57' W 008°53'0 0.0
2018-Aug-14 14:30N 37°57' W 008°53'0 0.0
2018-Aug-14 14:00N 37°57' W 008°53'0 0.0
2018-Aug-14 13:27N 37°57' W 008°53'0 0.0
2018-Aug-14 13:00N 37°57' W 008°53'0 0.0
2018-Aug-14 12:30N 37°57' W 008°53'0 0.0
2018-Aug-14 12:00N 37°57' W 008°53'0 0.0
2018-Aug-14 11:30N 37°57' W 008°53'0 0.0
2018-Aug-14 11:00N 37°57' W 008°53'0 0.0
2018-Aug-14 10:30N 37°57' W 008°53'0 0.0
2018-Aug-14 10:00N 37°57' W 008°53'0 0.0
2018-Aug-14 09:30N 37°57' W 008°53'0 0.0
2018-Aug-14 09:00N 37°57' W 008°53'0 0.0
2018-Aug-14 08:30N 37°57' W 008°53'0 0.0
2018-Aug-14 08:00N 37°57' W 008°53'0 0.0
2018-Aug-14 07:30N 37°57' W 008°53'0 0.0
2018-Aug-14 07:00N 37°57' W 008°53'0 0.0
2018-Aug-14 06:30N 37°57' W 008°53'0 0.0
2018-Aug-14 05:57N 37°57' W 008°53'0 0.0
2018-Aug-14 05:27N 37°57' W 008°53'0 0.0
2018-Aug-14 05:00N 37°57' W 008°53'0 0.0
2018-Aug-14 04:30N 37°57' W 008°53'0 0.0
2018-Aug-14 04:00N 37°57' W 008°53'0 0.0
2018-Aug-14 03:30N 37°57' W 008°53'2 3.1
2018-Aug-14 03:01N 37°55' W 008°53'5 9.2
2018-Aug-14 02:31N 37°53' W 008°57'612.5
2018-Aug-14 02:01N 37°48' W 009°03'612.9
2018-Aug-14 01:30N 37°44' W 009°09'612.7
2018-Aug-14 01:00N 37°40' W 009°16'612.5
2018-Aug-14 00:30N 37°36' W 009°22'612.6
2018-Aug-14 00:01N 37°32' W 009°28'612.3
2018-Aug-13 23:30N 37°28' W 009°34'612.4
2018-Aug-13 23:00N 37°24' W 009°40'612.1
2018-Aug-13 22:31N 37°20' W 009°46'611.8
2018-Aug-13 22:01N 37°17' W 009°52'611.7
2018-Aug-13 21:30N 37°13' W 009°57'611.8
2018-Aug-13 21:00N 37°09' W 010°03'611.7
2018-Aug-13 20:31N 37°06' W 010°09'611.5
2018-Aug-13 20:00N 37°02' W 010°15'7 8.2
2018-Aug-13 19:12N 36°58' W 010°21'812.0
2018-Aug-13 18:33N 36°53' W 010°28'211.9
2018-Aug-13 18:25N 36°52' W 010°30'512.0
2018-Aug-13 18:00N 36°49' W 010°35'612.1
2018-Aug-13 17:30N 36°45' W 010°40'912.0
2018-Aug-13 16:45N 36°39' W 010°49'1412.4
2018-Aug-13 15:37N 36°30' W 011°02'3811.7
2018-Aug-13 12:21N 36°05' W 011°39'512.7
2018-Aug-13 11:57N 36°02' W 011°44'612.6
2018-Aug-13 11:30N 35°59' W 011°49'1112.5
2018-Aug-13 10:39N 35°52' W 011°60'212.6
2018-Aug-13 10:30N 35°51' W 012°02'10311.2
2018-Aug-13 01:18N 34°45' W 013°39'411.4
2018-Aug-13 00:59N 34°42' W 013°42'611.2
2018-Aug-13 00:29N 34°39' W 013°47'1111.4
2018-Aug-12 23:31N 34°32' W 013°58'111.3
2018-Aug-12 23:26N 34°31' W 013°59'511.4
2018-Aug-12 23:00N 34°28' W 014°03'611.6
2018-Aug-12 22:30N 34°25' W 014°09'711.3
2018-Aug-12 21:53N 34°20' W 014°15'510.9
2018-Aug-12 21:25N 34°17' W 014°20'710.8
2018-Aug-12 20:47N 34°12' W 014°26'910.9
2018-Aug-12 20:00N 34°06' W 014°34'10011.0
2018-Aug-12 10:58N 33°03' W 016°06'511.9
2018-Aug-12 10:31N 32°60' W 016°11'611.8
2018-Aug-12 10:00N 32°56' W 016°17'  

Dump ship's entire track history